Time;durP1;ratioP1;P1;durP2;ratioP2;P2;SDS_P1;SDS_P2;PMS_P1;PMS_P2;Temp;Humidity;BMP_temperature;BMP_pressure;BME280_temperature;BME280_humidity;BME280_pressure;Samples;Min_cycle;Max_cycle;Signal;HPM_P1;HPM_P2
2022/09/09 00:00:15;;;;;;;1.90;1.50;;;;;;;15.16;71.09;100306.94;5056088;28;20052;-26
2022/09/09 00:02:46;;;;;;;1.83;1.73;;;;;;;15.18;71.19;100306.88;5049128;28;20027;-26
2022/09/09 00:06:05;;;;;;;1.70;1.60;;;;;;;15.12;71.06;100305.28;5053597;28;20017;-26
2022/09/09 00:08:37;;;;;;;1.67;1.58;;;;;;;15.07;71.48;100299.28;5042667;28;20029;-24
2022/09/09 00:11:04;;;;;;;1.33;1.23;;;;;;;15.05;71.44;100306.41;5051906;28;20029;-26
2022/09/09 00:13:59;;;;;;;1.45;1.35;;;;;;;15.00;71.41;100299.47;5060379;28;20100;-26
2022/09/09 00:16:26;;;;;;;1.50;1.40;;;;;;;15.03;71.39;100300.31;5052396;28;20082;-24
2022/09/09 00:19:13;;;;;;;1.90;1.77;;;;;;;15.03;71.26;100306.47;5049581;28;20029;-24
2022/09/09 00:21:44;;;;;;;2.40;1.25;;;;;;;15.03;71.19;100302.97;5042002;28;20542;-26
2022/09/09 00:24:35;;;;;;;1.50;1.40;;;;;;;14.97;71.61;100304.88;5046692;28;20050;-26
2022/09/09 00:27:30;;;;;;;2.35;1.50;;;;;;;14.98;71.07;100303.13;5050965;28;20036;-26
2022/09/09 00:30:14;;;;;;;1.20;1.10;;;;;;;15.04;70.87;100304.69;5057595;28;20032;-26
2022/09/09 00:32:41;;;;;;;3.78;1.40;;;;;;;14.97;71.00;100304.03;5077612;28;20025;-26
2022/09/09 00:35:31;;;;;;;1.88;1.40;;;;;;;14.97;71.07;100304.88;5069466;28;20029;-26
2022/09/09 00:38:02;;;;;;;1.35;1.20;;;;;;;14.92;71.24;100301.53;5037801;28;20040;-26
2022/09/09 00:40:32;;;;;;;;;;;;;;;14.92;71.48;100298.00;5051139;28;20029;-26
2022/09/09 00:43:38;;;;;;;1.63;1.50;;;;;;;14.91;71.56;100305.09;5058431;28;20391;-26
2022/09/09 00:46:33;;;;;;;1.50;1.40;;;;;;;14.92;71.35;100305.97;5059850;28;20040;-25
2022/09/09 00:49:09;;;;;;;1.40;1.30;;;;;;;14.89;71.45;100306.94;5052216;28;20027;-26
2022/09/09 00:52:05;;;;;;;5.05;1.65;;;;;;;14.83;71.59;100302.69;5056096;28;20057;-26
2022/09/09 00:54:33;;;;;;;1.55;1.45;;;;;;;14.85;71.80;100306.19;5048410;28;20029;-26
2022/09/09 00:57:14;;;;;;;2.50;1.30;;;;;;;14.84;71.76;100303.56;5048077;28;20116;-26
2022/09/09 00:59:46;;;;;;;1.60;1.40;;;;;;;14.87;71.35;100303.44;5058272;28;20055;-26
2022/09/09 01:02:35;;;;;;;2.92;1.30;;;;;;;14.86;71.42;100309.69;5061710;28;20037;-26
2022/09/09 01:05:07;;;;;;;1.95;1.45;;;;;;;14.78;71.21;100309.94;5045836;28;20021;-26
2022/09/09 01:07:32;;;;;;;1.67;1.30;;;;;;;14.72;71.73;100305.69;5052005;28;20210;-26
2022/09/09 01:10:00;;;;;;;2.30;1.45;;;;;;;14.72;71.59;100302.16;5053500;28;20103;-26
2022/09/09 01:12:41;;;;;;;1.40;1.30;;;;;;;14.76;71.37;100309.09;5059444;28;20029;-26
2022/09/09 01:15:30;;;;;;;1.55;1.42;;;;;;;14.71;71.75;100309.22;5047840;28;20028;-24
2022/09/09 01:18:03;;;;;;;1.48;1.38;;;;;;;14.69;71.56;100311.09;5036484;28;20025;-26
2022/09/09 01:21:07;;;;;;;1.27;1.17;;;;;;;14.66;71.65;100313.81;5052698;28;20049;-26
2022/09/09 01:23:49;;;;;;;1.40;1.30;;;;;;;14.65;71.63;100305.91;5063536;28;20051;-26
2022/09/09 01:26:29;;;;;;;1.27;1.17;;;;;;;14.66;71.80;100304.97;5062825;28;20095;-26
2022/09/09 01:28:55;;;;;;;1.77;1.35;;;;;;;14.60;71.80;100306.94;5048253;28;20032;-24
2022/09/09 01:31:59;;;;;;;3.45;1.50;;;;;;;14.62;71.60;100304.22;5074042;28;20419;-24
2022/09/09 01:34:27;;;;;;;1.63;1.52;;;;;;;14.60;71.91;100303.41;5040430;28;20038;-24
2022/09/09 01:37:04;;;;;;;2.05;1.38;;;;;;;14.58;71.68;100307.91;5051566;28;20675;-24
2022/09/09 01:39:29;;;;;;;1.25;1.13;;;;;;;14.60;71.61;100308.69;5050384;28;20488;-24
2022/09/09 01:41:55;;;;;;;1.48;1.38;;;;;;;14.59;71.34;100314.94;5047620;28;20086;-24
2022/09/09 01:44:21;;;;;;;1.50;1.40;;;;;;;14.62;71.23;100317.50;5050075;28;20021;-24
2022/09/09 01:46:47;;;;;;;1.50;1.40;;;;;;;14.56;71.61;100313.25;5044723;28;20071;-24
2022/09/09 01:49:12;;;;;;;1.38;1.27;;;;;;;14.56;71.54;100315.03;5058978;28;20025;-24
2022/09/09 01:51:39;;;;;;;1.40;1.30;;;;;;;14.52;71.92;100308.97;5054129;28;20713;-24
2022/09/09 01:54:05;;;;;;;1.40;1.30;;;;;;;14.49;71.65;100304.63;5055406;28;20535;-24
2022/09/09 01:56:31;;;;;;;1.73;1.40;;;;;;;14.49;71.63;100309.94;5052749;28;20384;-24
2022/09/09 01:59:33;;;;;;;2.08;1.40;;;;;;;14.43;72.11;100294.19;5055630;28;20031;-24
2022/09/09 02:02:21;;;;;;;1.45;1.17;;;;;;;14.43;71.76;100294.19;5048220;28;20025;-25
2022/09/09 02:04:58;;;;;;;1.20;1.10;;;;;;;14.47;71.96;100289.66;5047456;28;20112;-24
2022/09/09 02:07:31;;;;;;;2.47;1.30;;;;;;;14.43;71.66;100302.16;5051115;28;20365;-24
2022/09/09 02:10:12;;;;;;;2.03;1.50;;;;;;;14.45;71.52;100297.69;5053756;28;20033;-24
2022/09/09 02:12:47;;;;;;;1.45;1.15;;;;;;;14.41;71.80;100288.09;5034298;28;20029;-25
2022/09/09 02:15:27;;;;;;;2.03;1.13;;;;;;;14.44;71.93;100289.75;5021449;28;20033;-24
2022/09/09 02:17:54;;;;;;;2.30;1.27;;;;;;;14.41;71.75;100296.03;5047498;28;20020;-24
2022/09/09 02:20:20;;;;;;;1.55;1.45;;;;;;;14.39;72.19;100308.47;5050981;28;20028;-25
2022/09/09 02:22:49;;;;;;;1.73;1.63;;;;;;;14.36;71.95;100304.13;5048059;28;20036;-24
2022/09/09 02:25:18;;;;;;;2.65;1.50;;;;;;;14.34;71.92;100313.91;5061258;28;20047;-24
2022/09/09 02:27:45;;;;;;;2.55;1.45;;;;;;;14.32;71.99;100310.47;5049413;28;20305;-24
2022/09/09 02:30:11;;;;;;;1.30;1.20;;;;;;;14.32;72.14;100317.53;5048505;28;20485;-25
2022/09/09 02:32:37;;;;;;;2.55;1.50;;;;;;;14.33;72.10;100313.97;5053521;28;20033;-25
2022/09/09 02:35:10;;;;;;;1.20;1.10;;;;;;;14.30;71.91;100314.06;5059656;28;20036;-24
2022/09/09 02:37:38;;;;;;;3.33;1.38;;;;;;;14.29;72.36;100312.31;5058019;28;20029;-24
2022/09/09 02:40:05;;;;;;;2.92;1.23;;;;;;;14.27;72.21;100309.72;5045949;28;20087;-24
2022/09/09 02:42:31;;;;;;;1.00;1.00;;;;;;;14.29;71.78;100307.00;5046709;28;20025;-25
2022/09/09 02:44:56;;;;;;;1.55;1.20;;;;;;;14.24;72.33;100305.38;5043157;28;20025;-24
2022/09/09 02:47:25;;;;;;;2.42;1.60;;;;;;;14.26;71.84;100302.66;5045234;28;20025;-24
2022/09/09 02:50:08;;;;;;;1.20;1.10;;;;;;;14.22;72.11;100301.03;5037787;28;20026;-24
2022/09/09 02:52:48;;;;;;;1.10;1.08;;;;;;;14.22;71.89;100312.53;5056677;28;20025;-25
2022/09/09 02:55:36;;;;;;;1.20;1.10;;;;;;;14.23;72.12;100314.25;5041269;28;20033;-24
2022/09/09 02:58:04;;;;;;;1.55;1.35;;;;;;;14.19;72.26;100307.31;5055142;28;20033;-24
2022/09/09 03:00:30;;;;;;;1.70;1.60;;;;;;;14.18;72.01;100316.19;5045286;28;20059;-24
2022/09/09 03:03:22;;;;;;;1.27;1.17;;;;;;;14.16;72.11;100317.13;5050261;28;20420;-24
2022/09/09 03:05:47;;;;;;;;;;;;;;;14.18;71.80;100316.19;5043869;28;20384;-24
2022/09/09 03:08:12;;;;;;;1.65;1.55;;;;;;;14.14;72.25;100308.34;5051887;28;20436;-24
2022/09/09 03:10:38;;;;;;;1.20;1.10;;;;;;;14.14;71.98;100311.84;5049570;28;20036;-24
2022/09/09 03:13:05;;;;;;;1.67;1.05;;;;;;;14.09;72.17;100312.00;5047754;28;20020;-24
2022/09/09 03:15:32;;;;;;;1.30;1.20;;;;;;;14.09;72.20;100316.44;5053509;28;20511;-24
2022/09/09 03:17:58;;;;;;;1.40;1.30;;;;;;;14.07;72.37;100324.44;5053967;28;20029;-24
2022/09/09 03:20:25;;;;;;;1.67;1.45;;;;;;;14.03;72.69;100322.78;5048489;22;1083262;-27
2022/09/09 03:22:53;;;;;;;0.90;0.90;;;;;;;14.04;72.53;100318.38;5082398;28;20063;-27
2022/09/09 03:25:18;;;;;;;1.45;1.15;;;;;;;14.02;72.25;100320.19;5080467;28;20027;-27
2022/09/09 03:27:44;;;;;;;1.58;1.38;;;;;;;14.04;72.23;100313.91;5078062;28;20032;-26
2022/09/09 03:30:10;;;;;;;1.40;1.30;;;;;;;14.02;72.29;100317.53;5076133;28;20059;-27
2022/09/09 03:32:40;;;;;;;1.50;1.30;;;;;;;14.00;72.41;100306.13;5084359;28;20031;-27
2022/09/09 03:35:06;;;;;;;1.85;1.20;;;;;;;13.99;72.43;100310.53;5080480;28;20025;-27
2022/09/09 03:37:31;;;;;;;1.88;1.38;;;;;;;13.98;72.55;100308.81;5088585;28;20520;-27
2022/09/09 03:39:56;;;;;;;1.92;1.20;;;;;;;13.97;71.92;100310.59;5085473;28;20126;-27
2022/09/09 03:42:22;;;;;;;1.75;1.65;;;;;;;14.00;72.11;100311.41;5072948;28;20031;-27
2022/09/09 03:44:51;;;;;;;4.43;1.58;;;;;;;13.97;71.95;100310.59;5074549;28;20012;-27
2022/09/09 03:47:18;;;;;;;1.23;1.15;;;;;;;13.97;71.90;100313.22;5088985;28;20379;-27
2022/09/09 03:49:48;;;;;;;1.90;1.48;;;;;;;13.95;72.25;100304.47;5082921;28;20503;-27
2022/09/09 03:52:15;;;;;;;1.20;1.10;;;;;;;13.94;72.21;100310.66;5085004;28;20151;-27
2022/09/09 03:54:42;;;;;;;1.77;1.30;;;;;;;13.92;72.10;100301.91;5087241;28;20032;-27
2022/09/09 03:57:11;;;;;;;1.15;1.00;;;;;;;13.89;72.66;100307.28;5081472;28;20373;-27
2022/09/09 03:59:37;;;;;;;2.35;1.33;;;;;;;13.87;72.62;100305.59;5089108;28;20024;-27
2022/09/09 04:02:02;;;;;;;3.15;1.20;;;;;;;13.85;72.13;100309.16;5087777;28;20076;-27
2022/09/09 04:04:28;;;;;;;2.00;1.50;;;;;;;13.85;72.76;100301.19;5090788;28;20402;-27
2022/09/09 04:06:53;;;;;;;1.85;1.35;;;;;;;13.88;72.31;100305.56;5076552;28;20026;-27
2022/09/09 04:09:18;;;;;;;3.80;1.20;;;;;;;13.85;72.51;100308.28;5086598;28;20101;-27
2022/09/09 04:11:45;;;;;;;1.50;1.20;;;;;;;13.85;72.17;100309.16;5083056;28;20032;-27
2022/09/09 04:14:10;;;;;;;1.60;1.35;;;;;;;13.89;72.35;100307.28;5079339;28;20047;-27
2022/09/09 04:16:37;;;;;;;1.33;1.20;;;;;;;13.91;72.10;100315.19;5080749;28;20487;-27
2022/09/09 04:19:04;;;;;;;1.70;1.48;;;;;;;13.88;72.45;100318.81;5081046;28;20036;-27
2022/09/09 04:21:30;;;;;;;3.20;1.33;;;;;;;13.88;72.32;100317.94;5086564;28;20035;-27
2022/09/09 04:23:55;;;;;;;1.33;1.23;;;;;;;13.87;72.20;100321.50;5090871;28;20034;-27
2022/09/09 04:26:20;;;;;;;2.22;1.25;;;;;;;13.86;72.71;100331.22;5062574;28;20119;-26
2022/09/09 04:28:46;;;;;;;1.92;1.60;;;;;;;13.85;72.39;100329.50;5065760;28;20046;-26
2022/09/09 04:31:23;;;;;;;2.40;1.60;;;;;;;13.87;72.44;100319.72;5083844;28;20024;-26
2022/09/09 04:33:49;;;;;;;1.23;1.20;;;;;;;13.90;72.44;100324.94;5070857;28;20033;-26
2022/09/09 04:36:14;;;;;;;1.70;1.60;;;;;;;13.89;72.36;100325.84;5081434;28;20023;-27
2022/09/09 04:38:40;;;;;;;1.55;1.45;;;;;;;13.91;72.31;100324.00;5062735;28;20376;-27
2022/09/09 04:41:05;;;;;;;1.70;1.60;;;;;;;13.91;72.20;100321.34;5083313;28;20032;-27
2022/09/09 04:43:31;;;;;;;1.20;1.17;;;;;;;13.91;72.41;100324.00;5080685;28;20394;-27
2022/09/09 04:45:59;;;;;;;1.40;1.30;;;;;;;13.92;72.18;100325.75;5078694;28;20024;-27
2022/09/09 04:48:25;;;;;;;1.17;1.10;;;;;;;13.93;72.35;100327.50;5065227;28;20024;-27
2022/09/09 04:50:58;;;;;;;2.17;1.63;;;;;;;13.94;72.36;100323.91;5076676;28;20078;-27
2022/09/09 04:53:25;;;;;;;1.50;1.40;;;;;;;13.96;72.01;100326.53;5079875;28;20021;-27
2022/09/09 04:55:50;;;;;;;1.33;1.23;;;;;;;13.97;72.33;100323.84;5064088;28;20550;-27
2022/09/09 04:58:17;;;;;;;1.67;1.50;;;;;;;14.00;72.40;100332.63;5067742;28;20032;-27
2022/09/09 05:00:42;;;;;;;1.63;1.52;;;;;;;13.98;72.40;100336.19;5076678;28;20031;-27
2022/09/09 05:03:08;;;;;;;2.70;1.52;;;;;;;14.01;72.04;100335.25;5060147;28;20028;-27
2022/09/09 05:05:34;;;;;;;1.30;1.20;;;;;;;14.04;72.18;100329.81;5080026;28;20023;-27
2022/09/09 05:08:06;;;;;;;1.10;1.00;;;;;;;14.06;72.39;100343.91;5085146;28;20440;-27
2022/09/09 05:10:32;;;;;;;1.58;1.25;;;;;;;14.06;71.94;100337.72;5075933;28;20037;-27
2022/09/09 05:12:57;;;;;;;1.60;1.50;;;;;;;14.08;72.24;100341.22;5082849;28;20131;-27
2022/09/09 05:15:23;;;;;;;1.55;1.45;;;;;;;14.11;72.21;100341.16;5084690;28;20069;-27
2022/09/09 05:17:48;;;;;;;1.67;1.10;;;;;;;14.09;72.39;100342.97;5075625;28;20036;-26
2022/09/09 05:20:13;;;;;;;2.08;1.42;;;;;;;14.12;72.35;100334.91;5070311;28;20055;-27
2022/09/09 05:22:39;;;;;;;1.20;1.17;;;;;;;14.11;72.33;100335.84;5081615;28;20016;-27
2022/09/09 05:25:04;;;;;;;1.95;1.50;;;;;;;14.12;71.98;100326.97;5078687;28;20036;-26
2022/09/09 05:27:31;;;;;;;1.38;1.27;;;;;;;14.19;72.35;100333.81;5063757;28;20082;-26
2022/09/09 05:29:57;;;;;;;1.42;1.33;;;;;;;14.18;72.01;100332.09;5077978;28;20028;-26
2022/09/09 05:32:22;;;;;;;2.08;1.50;;;;;;;14.17;72.32;100327.69;5079413;28;20019;-26
2022/09/09 05:34:47;;;;;;;2.20;1.67;;;;;;;14.21;71.84;100334.63;5059396;28;20429;-26
2022/09/09 05:37:13;;;;;;;1.33;1.23;;;;;;;14.23;71.82;100340.78;5072975;28;20403;-26
2022/09/09 05:39:38;;;;;;;2.45;1.60;;;;;;;14.26;72.05;100333.63;5072435;28;20031;-27
2022/09/09 05:42:04;;;;;;;1.65;1.55;;;;;;;14.25;71.97;100338.06;5088588;28;20050;-26
2022/09/09 05:44:31;;;;;;;1.48;1.38;;;;;;;14.28;72.35;100332.69;5063930;28;20391;-26
2022/09/09 05:46:57;;;;;;;3.22;1.25;;;;;;;14.30;71.99;100330.00;5055053;28;20569;-26
2022/09/09 05:49:24;;;;;;;1.58;1.48;;;;;;;14.32;72.07;100329.03;5086270;28;20429;-26
2022/09/09 05:51:50;;;;;;;1.35;1.20;;;;;;;14.34;72.07;100332.47;5081075;28;20391;-27
2022/09/09 05:54:16;;;;;;;1.80;1.67;;;;;;;14.36;72.35;100335.09;5081986;28;20093;-27
2022/09/09 05:56:41;;;;;;;1.83;1.30;;;;;;;14.39;72.13;100344.72;5080836;28;20546;-27
2022/09/09 05:59:07;;;;;;;3.22;1.73;;;;;;;14.41;72.13;100335.84;5074545;28;20384;-27
2022/09/09 06:01:34;;;;;;;1.95;1.45;;;;;;;14.41;72.24;100349.09;5086028;28;20016;-27
2022/09/09 06:03:59;;;;;;;1.50;1.40;;;;;;;14.45;72.54;100344.56;5083528;28;20502;-26
2022/09/09 06:06:29;;;;;;;2.20;1.60;;;;;;;14.48;72.25;100347.97;5079628;28;20028;-26
2022/09/09 06:08:57;;;;;;;1.98;1.65;;;;;;;14.52;72.00;100350.53;5055054;28;20488;-26
2022/09/09 06:11:30;;;;;;;1.90;1.50;;;;;;;14.59;72.31;100349.44;5076562;28;20030;-26
2022/09/09 06:13:56;;;;;;;1.33;1.23;;;;;;;14.59;71.93;100352.97;5085355;28;20027;-26
2022/09/09 06:16:24;;;;;;;1.80;1.50;;;;;;;14.59;72.02;100342.34;5073971;28;20042;-26
2022/09/09 06:18:54;;;;;;;2.45;1.60;;;;;;;14.65;72.69;100351.03;5062627;28;20040;-26
2022/09/09 06:21:32;;;;;;;1.52;1.40;;;;;;;14.72;72.85;100348.16;5076602;28;20527;-27
2022/09/09 06:23:57;;;;;;;2.00;1.60;;;;;;;14.76;72.37;100348.91;5074984;28;20054;-27
2022/09/09 06:26:25;;;;;;;2.10;1.70;;;;;;;14.82;72.06;100351.41;5071538;28;20032;-26
2022/09/09 06:28:52;;;;;;;1.42;1.33;;;;;;;14.82;72.38;100347.88;5074239;28;20021;-26
2022/09/09 06:31:21;;;;;;;1.48;1.38;;;;;;;14.86;72.24;100347.75;5069896;28;20101;-26
2022/09/09 06:33:49;;;;;;;2.05;1.60;;;;;;;14.91;71.89;100350.25;5090718;28;20077;-27
2022/09/09 06:36:18;;;;;;;2.00;1.60;;;;;;;14.94;72.23;100336.84;5065514;28;20020;-26
2022/09/09 06:38:44;;;;;;;1.65;1.55;;;;;;;14.96;71.93;100343.00;5078085;28;20024;-27
2022/09/09 06:41:10;;;;;;;3.90;1.67;;;;;;;15.01;72.05;100342.84;5054092;28;20021;-27
2022/09/09 06:43:39;;;;;;;2.15;1.95;;;;;;;15.04;71.86;100341.88;5076155;28;20039;-26
2022/09/09 06:46:08;;;;;;;1.50;1.40;;;;;;;15.07;71.64;100347.09;5073219;28;20029;-26
2022/09/09 06:48:33;;;;;;;3.10;1.45;;;;;;;15.09;72.04;100343.47;5060024;28;20028;-26
2022/09/09 06:51:11;;;;;;;2.50;1.45;;;;;;;15.13;71.34;100346.88;5072068;28;20028;-26
2022/09/09 06:53:38;;;;;;;1.48;1.35;;;;;;;15.18;72.41;100354.69;5073457;28;20144;-26
2022/09/09 06:56:23;;;;;;;3.38;1.52;;;;;;;15.20;72.51;100343.09;5091767;28;20081;-27
2022/09/09 06:58:49;;;;;;;2.05;1.85;;;;;;;15.24;72.77;100352.69;5070960;28;20029;-26
2022/09/09 07:01:16;;;;;;;1.60;1.50;;;;;;;15.29;73.20;100355.19;5075751;28;20036;-26
2022/09/09 07:41:28;;;;;;;3.60;1.92;;;;;;;17.21;77.46;100353.41;5089884;27;20401;-19
2022/09/09 07:43:53;;;;;;;1.92;1.70;;;;;;;17.23;77.82;100361.31;5082813;28;20036;-18
2022/09/09 07:46:20;;;;;;;2.85;1.70;;;;;;;17.37;78.47;100364.28;5083163;23;20485;-22
2022/09/09 07:48:46;;;;;;;3.63;1.60;;;;;;;17.49;77.22;100368.22;5002692;28;20405;-23
2022/09/09 07:51:18;;;;;;;3.40;1.85;;;;;;;17.59;76.35;100367.81;5009817;28;20042;-23
2022/09/09 07:53:44;;;;;;;4.07;1.70;;;;;;;17.64;76.14;100366.69;4997676;28;20037;-23
2022/09/09 07:56:19;;;;;;;2.55;1.55;;;;;;;17.78;75.29;100354.56;5011265;28;20034;-24
2022/09/09 07:58:46;;;;;;;1.65;1.55;;;;;;;17.92;75.08;100360.13;5019618;28;20485;-23
2022/09/09 08:01:17;;;;;;;3.15;1.70;;;;;;;17.98;75.00;100364.34;5030924;28;20037;-23
2022/09/09 08:03:44;;;;;;;3.63;1.65;;;;;;;18.15;74.38;100368.06;5027980;28;20469;-24
2022/09/09 08:06:11;;;;;;;4.28;1.35;;;;;;;18.09;73.44;100374.53;5028979;28;20515;-24
2022/09/09 08:08:38;;;;;;;3.35;1.80;;;;;;;18.10;74.13;100367.41;5028851;28;20101;-23
2022/09/09 08:11:03;;;;;;;3.63;1.50;;;;;;;18.29;74.72;100368.28;5011352;28;20120;-23
2022/09/09 08:31:44;;;;;;;1.92;1.55;;;;;;;19.19;73.21;100368.50;5114878;27;20354;-19
2022/09/09 08:34:10;;;;;;;3.10;1.40;;;;;;;19.20;70.99;100367.53;5109783;28;20031;-19
2022/09/09 08:36:44;;;;;;;1.50;1.40;;;;;;;19.34;71.33;100372.19;5095653;28;20036;-19
2022/09/09 08:39:10;;;;;;;4.95;1.60;;;;;;;19.38;69.61;100364.88;5105496;28;20028;-19
2022/09/09 08:42:05;;;;;;;3.25;1.73;;;;;;;19.69;70.49;100375.78;5102817;28;20035;-19
2022/09/09 08:47:07;;;;;;;2.92;1.50;;;;;;;19.81;70.50;100380.50;5106980;28;20052;-19
2022/09/09 08:50:00;;;;;;;3.80;1.20;;;;;;;19.80;70.14;100383.25;5108636;28;20070;-18
2022/09/09 08:52:30;;;;;;;1.55;0.93;;;;;;;20.05;69.35;100377.50;5101909;28;20077;-19
2022/09/09 08:55:21;;;;;;;1.92;1.63;;;;;;;20.17;70.32;100377.78;5096883;28;20509;-18
2022/09/09 08:57:50;;;;;;;;;;;;;;;20.07;69.29;100369.41;5106639;28;20019;-19
2022/09/09 09:00:24;;;;;;;2.85;1.58;;;;;;;20.40;70.10;100375.66;5111916;28;20297;-18
2022/09/09 09:03:26;;;;;;;2.38;1.10;;;;;;;20.28;68.68;100378.06;5114369;27;20160;-18
2022/09/09 09:06:06;;;;;;;3.67;1.40;;;;;;;20.40;68.87;100381.03;5097141;28;20028;-18
2022/09/09 09:08:47;;;;;;;2.20;1.30;;;;;;;20.41;69.11;100382.75;5102975;28;20035;-18
2022/09/09 09:11:12;;;;;;;4.97;1.77;;;;;;;20.50;69.46;100372.38;5107359;28;20076;-19
2022/09/09 09:13:52;;;;;;;5.03;1.77;;;;;;;20.66;68.67;100376.00;5089753;28;20031;-18
2022/09/09 09:16:54;;;;;;;1.52;1.42;;;;;;;21.04;66.55;100378.34;5078845;28;20028;-19
2022/09/09 09:19:22;;;;;;;3.95;1.45;;;;;;;21.13;65.97;100385.84;5103280;28;20040;-17
2022/09/09 09:21:53;;;;;;;4.47;1.25;;;;;;;21.28;66.05;100373.34;5105982;28;20031;-18
2022/09/09 09:24:20;;;;;;;2.75;1.40;;;;;;;21.52;65.21;100377.34;5094147;28;20028;-17
2022/09/09 09:26:49;;;;;;;2.67;1.40;;;;;;;21.66;64.39;100377.38;5103187;28;20030;-18
2022/09/09 09:29:19;;;;;;;2.05;1.30;;;;;;;21.73;64.30;100368.94;5104675;28;20686;-17
2022/09/09 09:31:51;;;;;;;1.02;1.00;;;;;;;21.80;64.32;100367.66;5101295;28;20186;-18
2022/09/09 09:34:17;;;;;;;1.52;1.10;;;;;;;21.85;64.90;100375.44;5082122;28;20123;-16
2022/09/09 09:36:46;;;;;;;4.00;1.50;;;;;;;21.91;64.90;100367.84;5085049;28;20032;-17
2022/09/09 09:39:23;;;;;;;1.60;1.40;;;;;;;21.92;63.61;100369.59;5083876;28;20492;-17
2022/09/09 09:41:48;;;;;;;2.28;1.23;;;;;;;21.95;64.58;100363.16;5086543;28;20024;-16
2022/09/09 09:44:28;;;;;;;2.90;1.27;;;;;;;22.01;64.74;100367.28;5084800;28;20085;-17
2022/09/09 09:47:08;;;;;;;2.95;1.27;;;;;;;22.13;64.27;100371.88;5085272;28;20036;-17
2022/09/09 09:49:34;;;;;;;3.38;1.30;;;;;;;22.24;64.12;100370.34;5089845;28;20024;-17
2022/09/09 09:52:07;;;;;;;3.58;1.30;;;;;;;22.30;63.97;100369.94;5090522;28;20473;-17
2022/09/09 09:54:37;;;;;;;4.47;1.40;;;;;;;22.40;63.60;100375.59;5086672;28;20024;-17
2022/09/09 09:57:13;;;;;;;2.38;1.42;;;;;;;22.45;64.44;100372.63;5080598;28;20452;-17
2022/09/09 09:59:39;;;;;;;1.95;1.38;;;;;;;22.48;64.94;100372.44;5079358;28;20020;-18
2022/09/09 10:02:26;;;;;;;2.97;1.30;;;;;;;22.60;64.59;100377.03;5092304;28;20152;-17
2022/09/09 10:05:30;;;;;;;2.50;1.30;;;;;;;22.65;63.80;100380.31;5085996;28;20012;-17
2022/09/09 10:08:08;;;;;;;2.08;1.20;;;;;;;22.71;62.57;100383.53;5083479;28;20051;-17
2022/09/09 10:10:42;;;;;;;3.42;1.50;;;;;;;22.66;61.60;100386.53;5091328;28;20047;-17
2022/09/09 10:13:49;;;;;;;2.63;0.90;;;;;;;22.62;61.24;100375.13;5080609;28;20085;-17
2022/09/09 10:16:36;;;;;;;2.92;1.65;;;;;;;22.64;61.29;100378.56;5094295;28;20016;-16
2022/09/09 10:19:14;;;;;;;1.40;1.08;;;;;;;22.75;60.88;100368.94;5073287;28;20480;-17
2022/09/09 10:22:00;;;;;;;2.58;1.20;;;;;;;22.81;60.74;100363.16;5071964;28;20024;-19
2022/09/09 10:25:22;;;;;;;1.33;0.90;;;;;;;22.94;61.28;100364.06;5071547;28;20025;-19
2022/09/09 10:28:26;;;;;;;1.40;1.00;;;;;;;23.02;61.04;100360.00;5074137;28;20449;-19
2022/09/09 10:31:04;;;;;;;2.85;1.20;;;;;;;23.06;60.79;100357.00;5088320;28;20020;-19
2022/09/09 10:34:04;;;;;;;2.08;1.10;;;;;;;23.03;60.29;100356.34;5087028;28;20544;-19
2022/09/09 10:36:29;;;;;;;2.83;1.17;;;;;;;23.04;59.68;100353.56;5080434;28;20499;-19
2022/09/09 10:39:06;;;;;;;3.58;1.17;;;;;;;23.02;59.68;100351.94;5080844;28;20509;-20
2022/09/09 10:42:13;;;;;;;2.92;0.95;;;;;;;22.99;59.30;100354.81;5077458;28;20492;-21
2022/09/09 10:44:58;;;;;;;2.47;1.50;;;;;;;22.97;60.45;100360.31;5060222;28;20044;-20
2022/09/09 10:47:43;;;;;;;2.67;1.52;;;;;;;22.99;60.54;100361.06;5087702;28;20054;-20
2022/09/09 10:50:31;;;;;;;1.70;1.10;;;;;;;23.02;60.22;100357.31;5056782;28;20280;-20
2022/09/09 10:53:19;;;;;;;3.13;1.23;;;;;;;23.07;60.23;100364.13;5084847;28;20107;-20
2022/09/09 10:55:53;;;;;;;2.92;1.20;;;;;;;23.16;60.60;100367.13;5087562;28;20024;-20
2022/09/09 10:58:28;;;;;;;4.78;1.02;;;;;;;23.20;60.70;100369.53;5087783;28;20458;-20
2022/09/09 11:00:57;;;;;;;1.35;0.85;;;;;;;23.28;60.49;100360.09;5089770;28;20106;-19
2022/09/09 11:03:26;;;;;;;2.17;1.13;;;;;;;23.29;60.33;100351.03;5083956;28;20056;-21
2022/09/09 11:06:03;;;;;;;1.73;1.02;;;;;;;23.37;59.95;100356.78;5088021;28;20371;-21
2022/09/09 11:08:31;;;;;;;2.33;1.25;;;;;;;23.38;59.05;100358.53;5081407;28;20090;-21
2022/09/09 11:11:03;;;;;;;1.20;1.10;;;;;;;23.38;59.17;100358.53;5071290;28;20024;-18
2022/09/09 11:13:51;;;;;;;2.05;0.95;;;;;;;23.35;59.10;100344.38;5090020;28;20023;-18
2022/09/09 11:16:27;;;;;;;1.17;1.08;;;;;;;23.33;58.97;100341.78;5085102;28;20020;-20
2022/09/09 11:18:59;;;;;;;3.15;1.23;;;;;;;23.27;59.20;100336.84;5089664;28;20028;-18
2022/09/09 11:21:45;;;;;;;1.85;1.08;;;;;;;23.26;59.14;100335.09;5090576;28;20078;-18
2022/09/09 11:24:17;;;;;;;1.58;1.15;;;;;;;23.27;58.66;100339.53;5077129;28;20142;-17
2022/09/09 11:26:50;;;;;;;2.88;1.48;;;;;;;23.25;59.31;100328.88;5081360;28;20110;-17
2022/09/09 11:29:38;;;;;;;2.15;1.20;;;;;;;23.25;59.24;100333.38;5085772;28;20024;-18
2022/09/09 11:32:29;;;;;;;3.60;1.00;;;;;;;23.22;59.05;100334.47;5085028;28;20023;-17
2022/09/09 11:35:13;;;;;;;1.20;1.10;;;;;;;23.29;58.88;100341.16;5083302;28;20017;-17
2022/09/09 11:37:53;;;;;;;1.60;1.10;;;;;;;23.33;59.24;100341.78;5077901;28;20028;-17
2022/09/09 11:40:19;;;;;;;2.67;1.00;;;;;;;23.41;58.70;100352.06;5071542;28;20029;-17
2022/09/09 11:42:45;;;;;;;2.10;1.40;;;;;;;23.48;56.84;100350.69;5073540;28;20372;-18
2022/09/09 11:45:20;;;;;;;2.15;1.17;;;;;;;23.50;57.44;100347.88;5075785;28;20395;-18
2022/09/09 11:47:56;;;;;;;2.88;0.90;;;;;;;23.55;56.82;100343.91;5084104;28;20099;-17
2022/09/09 11:50:22;;;;;;;1.67;0.88;;;;;;;23.58;57.34;100340.13;5083212;28;20495;-17
2022/09/09 11:52:49;;;;;;;2.40;1.00;;;;;;;23.66;56.26;100353.91;5088811;28;20019;-18
2022/09/09 11:55:28;;;;;;;2.33;1.10;;;;;;;23.73;55.58;100345.41;5084144;28;20107;-17
2022/09/09 11:58:26;;;;;;;2.72;1.13;;;;;;;23.81;55.81;100334.97;5077947;28;20028;-17
2022/09/09 12:00:52;;;;;;;2.75;1.00;;;;;;;23.82;55.41;100350.16;5044118;28;20058;-17
2022/09/09 12:03:45;;;;;;;1.40;1.00;;;;;;;23.88;55.91;100347.03;5075319;28;20020;-19
2022/09/09 12:06:41;;;;;;;1.73;1.30;;;;;;;23.93;54.34;100339.47;5082352;28;20084;-17
2022/09/09 12:09:18;;;;;;;2.20;0.82;;;;;;;23.97;53.99;100340.09;5082453;28;20071;-17
2022/09/09 12:11:43;;;;;;;3.15;0.93;;;;;;;23.96;54.66;100333.88;5080206;28;20032;-18
2022/09/09 12:14:44;;;;;;;2.63;1.02;;;;;;;24.04;54.09;100329.78;5082474;28;20024;-17
2022/09/09 12:17:23;;;;;;;4.10;1.08;;;;;;;24.11;54.45;100325.69;5074129;28;20392;-17
2022/09/09 12:20:13;;;;;;;2.55;1.20;;;;;;;24.13;54.65;100321.06;5081242;28;20109;-17
2022/09/09 12:23:16;;;;;;;1.33;0.90;;;;;;;24.16;54.26;100318.16;5072349;28;20123;-17
2022/09/09 12:25:48;;;;;;;1.08;0.77;;;;;;;24.19;54.45;100323.31;5085330;28;20525;-17
2022/09/09 12:28:20;;;;;;;2.72;1.10;;;;;;;24.17;53.85;100310.94;5081490;28;20040;-17
2022/09/09 12:31:17;;;;;;;4.13;1.20;;;;;;;24.13;53.96;100315.66;5070156;28;20021;-17
2022/09/09 12:33:45;;;;;;;2.30;0.95;;;;;;;24.12;54.81;100303.19;5065119;28;20059;-18
2022/09/09 12:36:13;;;;;;;1.60;1.13;;;;;;;24.07;53.95;100314.25;5071142;28;20229;-20
2022/09/09 12:38:43;;;;;;;1.92;0.85;;;;;;;24.07;54.10;100313.38;5081713;28;20645;-17
2022/09/09 12:41:28;;;;;;;2.00;0.80;;;;;;;23.99;53.74;100316.63;5080349;28;20036;-17
2022/09/09 12:44:09;;;;;;;2.30;1.08;;;;;;;23.98;53.52;100319.44;5079652;28;20024;-17
2022/09/09 12:46:45;;;;;;;2.08;0.95;;;;;;;23.91;52.63;100311.78;5099658;28;20032;-18
2022/09/09 12:49:33;;;;;;;2.20;0.90;;;;;;;23.84;52.56;100318.56;5077305;28;20039;-18
2022/09/09 12:52:01;;;;;;;1.15;0.75;;;;;;;23.82;52.03;100317.84;5075875;28;20081;-17
2022/09/09 12:54:27;;;;;;;4.13;1.00;;;;;;;23.81;52.34;100310.75;5089464;28;20055;-18